Weather History for Gwinner, ND

Change the Weather History Date:

Sunday, December 9, 2012

  Actual Average (KP67) Record (KP67)
Temperature  
Mean Temperature 10 °F -  
Max Temperature 19 °F 25 °F 28 °F (1997)
Min Temperature 0 °F 13 °F 17 °F (1996)
Degree Days  
Heating Degree Days 56    
Moisture  
Dew Point 3 °F    
Average Humidity 75    
Maximum Humidity 93    
Minimum Humidity 62    
Precipitation  
Precipitation 0.00 in - - ()
Sea Level Pressure  
Sea Level Pressure 30.14 in    
Wind  
Wind Speed 24 mph (North)    
Max Wind Speed 36 mph    
Max Gust Speed 45 mph    
Visibility 5 miles    
Events      
Averages and records for this station are not official NWS values.
T = Trace of Precipitation, MM = Missing Value Source: NWS Daily Summary

Daily Weather History Graph

Daily Weather History Graph

Search for Another Location

Airport:

Trip Planner

Search our weather history database for the weather conditions in past years. The results will help you decide how hot, cold, wet, or windy it might be!

Date:

Astronomy

Dec. 09, 2012 Rise Set
Actual Time 8:01 AM CST 4:44 PM CST
Civil Twilight 7:27 AM CST 5:18 PM CST
Nautical Twilight 6:49 AM CST 5:56 PM CST
Astronomical Twilight 6:12 AM CST 6:33 PM CST
Moon 3:25 AM CST (12/9) 2:01 PM CST (12/9)
Length of Visible Light 9h 51m
Length of Day
8h 42m
Waning Crescent, 18% of the Moon is Illuminated
Dec 9
Waning Crescent
Dec 13
New
Dec 19
First Quarter
Dec 28
Full
Jan 4
Last Quarter

Hourly Weather History & Observations

Time (CST) Temp. Windchill Dew Point Humidity Pressure Visibility Wind Dir Wind Speed Gust Speed Precip Events Conditions
12:15 AM 19.4 °F 2.5 °F 17.6 °F 93% 29.97 in 1.8 mi North 23.0 mph 28.8 mph 0.00 in   Overcast
12:35 AM 19.4 °F 2.5 °F 15.8 °F 86% 29.98 in 2.0 mi North 23.0 mph 27.6 mph 0.00 in   Overcast
12:55 AM 17.6 °F 0.5 °F 14.0 °F 86% 29.97 in 2.0 mi North 21.9 mph - 0.00 in   Overcast
1:15 AM 17.6 °F 0.5 °F 14.0 °F 86% 29.97 in 2.5 mi North 21.9 mph - 0.00 in   Overcast
1:35 AM 17.6 °F -0.3 °F 14.0 °F 86% 29.97 in 2.5 mi North 24.2 mph 31.1 mph 0.00 in   Overcast
1:55 AM 17.6 °F -0.6 °F 14.0 °F 86% 29.98 in 2.0 mi North 25.3 mph 31.1 mph 0.00 in   Overcast
2:15 AM 15.8 °F -2.7 °F 12.2 °F 86% 29.98 in 2.0 mi North 24.2 mph - 0.00 in   Overcast
2:35 AM 15.8 °F -2.7 °F 12.2 °F 86% 29.99 in 2.5 mi North 24.2 mph - 0.00 in   Overcast
2:55 AM 15.8 °F -3.1 °F 12.2 °F 86% 30.00 in 2.0 mi North 25.3 mph 31.1 mph 0.00 in   Overcast
3:15 AM 14.0 °F -4.7 °F 10.4 °F 86% 30.00 in 2.0 mi North 23.0 mph 29.9 mph 0.00 in   Overcast
3:35 AM 14.0 °F -5.5 °F 10.4 °F 86% 30.00 in 2.0 mi North 25.3 mph 32.2 mph 0.00 in   Overcast
3:55 AM 14.0 °F -6.2 °F 10.4 °F 86% 30.00 in 1.8 mi North 27.6 mph 32.2 mph 0.00 in   Overcast
4:15 AM 14.0 °F -6.5 °F 10.4 °F 86% 30.00 in 1.2 mi North 28.8 mph 38.0 mph 0.00 in   Overcast
4:35 AM 14.0 °F -6.5 °F 10.4 °F 86% 30.01 in 1.8 mi North 28.8 mph 34.5 mph 0.00 in   Overcast
4:55 AM 12.2 °F -9.6 °F 8.6 °F 85% 30.03 in 1.5 mi North 31.1 mph 39.1 mph 0.00 in   Overcast
5:15 AM 12.2 °F -9.6 °F 8.6 °F 85% 30.03 in 1.5 mi North 31.1 mph 36.8 mph 0.00 in   Overcast
5:35 AM 12.2 °F -9.3 °F 10.4 °F 92% 30.03 in 1.2 mi North 29.9 mph 39.1 mph 0.00 in   Overcast
6:15 AM 14.0 °F -6.8 °F 10.4 °F 86% 30.05 in 1.0 mi North 29.9 mph 35.7 mph 0.00 in   Overcast
6:35 AM 14.0 °F -6.2 °F 10.4 °F 86% 30.06 in 0.8 mi North 27.6 mph 42.6 mph 0.00 in   Overcast
6:55 AM 12.2 °F -10.8 °F 8.6 °F 85% 30.07 in 0.5 mi North 35.7 mph 44.9 mph 0.00 in   Overcast
7:15 AM 10.4 °F -11.4 °F 6.8 °F 85% 30.09 in 0.8 mi North 28.8 mph 39.1 mph 0.00 in   Overcast
7:35 AM 10.4 °F -11.7 °F 5.0 °F 79% 30.10 in 0.8 mi North 29.9 mph 38.0 mph 0.00 in   Overcast
7:55 AM 10.4 °F -12.3 °F 5.0 °F 79% 30.11 in 0.5 mi North 32.2 mph 39.1 mph 0.00 in   Overcast
8:15 AM 8.6 °F -15.1 °F 3.2 °F 79% 30.12 in 0.8 mi North 33.4 mph 39.1 mph 0.00 in   Overcast
8:35 AM 8.6 °F -14.5 °F 1.4 °F 73% 30.13 in 0.8 mi North 31.1 mph 40.3 mph 0.00 in   Overcast
8:55 AM 8.6 °F -14.8 °F 1.4 °F 73% 30.14 in 0.8 mi North 32.2 mph 39.1 mph 0.00 in   Overcast
9:15 AM 8.6 °F -13.4 °F 1.4 °F 73% 30.15 in 1.0 mi North 27.6 mph 36.8 mph 0.00 in   Overcast
9:35 AM 6.8 °F -16.9 °F -0.4 °F 72% 30.16 in 0.8 mi North 31.1 mph 41.4 mph 0.00 in   Overcast
9:55 AM 6.8 °F -17.3 °F -0.4 °F 72% 30.17 in 1.0 mi North 32.2 mph 38.0 mph 0.00 in   Overcast
10:15 AM 6.8 °F -17.3 °F -0.4 °F 72% 30.17 in 1.2 mi North 32.2 mph 38.0 mph 0.00 in   Overcast
10:35 AM 8.6 °F -13.8 °F -0.4 °F 67% 30.18 in 1.2 mi North 28.8 mph 36.8 mph 0.00 in   Scattered Clouds
10:55 AM 8.6 °F -13.8 °F -0.4 °F 67% 30.19 in 1.5 mi North 28.8 mph 38.0 mph 0.00 in   Scattered Clouds
11:15 AM 8.6 °F -14.8 °F -0.4 °F 67% 30.20 in 1.2 mi North 32.2 mph 39.1 mph 0.00 in   Scattered Clouds
11:35 AM 8.6 °F -14.8 °F -0.4 °F 67% 30.19 in 1.0 mi North 32.2 mph 41.4 mph 0.00 in   Clear
11:55 AM 8.6 °F -14.1 °F 1.4 °F 73% 30.19 in 1.8 mi North 29.9 mph 38.0 mph 0.00 in   Clear
12:15 PM 8.6 °F -13.8 °F 1.4 °F 73% 30.19 in 1.2 mi North 28.8 mph 39.1 mph 0.00 in   Clear
12:35 PM 10.4 °F -12.7 °F 3.2 °F 73% 30.19 in 1.5 mi North 33.4 mph 39.1 mph 0.00 in   Scattered Clouds
12:55 PM 10.4 °F -12.3 °F 3.2 °F 73% 30.19 in 1.2 mi North 32.2 mph 39.1 mph 0.00 in   Overcast
1:15 PM 10.4 °F -11.4 °F 3.2 °F 73% 30.19 in 1.2 mi North 28.8 mph 39.1 mph 0.00 in   Overcast
1:35 PM 10.4 °F -12.7 °F 3.2 °F 73% 30.19 in 1.5 mi North 33.4 mph 38.0 mph 0.00 in   Overcast
1:55 PM 10.4 °F -10.3 °F 3.2 °F 73% 30.19 in 2.0 mi North 25.3 mph 33.4 mph 0.00 in   Overcast
2:15 PM 10.4 °F -11.7 °F 3.2 °F 73% 30.19 in 3.0 mi North 29.9 mph 34.5 mph 0.00 in   Overcast
2:35 PM 10.4 °F -10.3 °F 3.2 °F 73% 30.19 in 5.0 mi North 25.3 mph 31.1 mph 0.00 in   Scattered Clouds
2:55 PM 10.4 °F -11.4 °F 1.4 °F 67% 30.20 in 3.0 mi North 28.8 mph 38.0 mph 0.00 in   Clear
3:15 PM 10.4 °F -10.3 °F 1.4 °F 67% 30.20 in 6.0 mi North 25.3 mph 29.9 mph 0.00 in   Clear
3:35 PM 10.4 °F -9.9 °F 1.4 °F 67% 30.21 in 8.0 mi North 24.2 mph 29.9 mph 0.00 in   Clear
3:55 PM 10.4 °F -8.6 °F 1.4 °F 67% 30.22 in 9.0 mi North 20.7 mph 26.5 mph 0.00 in   Clear
4:15 PM 10.4 °F -8.6 °F 1.4 °F 67% 30.22 in 10.0 mi North 20.7 mph - 0.00 in   Clear
4:35 PM 10.4 °F -9.5 °F 1.4 °F 67% 30.22 in 10.0 mi North 23.0 mph 27.6 mph 0.00 in   Clear
4:55 PM 10.4 °F -6.6 °F -0.4 °F 62% 30.22 in 10.0 mi North 16.1 mph - 0.00 in   Clear
5:15 PM 8.6 °F -8.3 °F -0.4 °F 67% 30.23 in 10.0 mi North 15.0 mph - 0.00 in   Clear
5:35 PM 8.6 °F -8.3 °F -0.4 °F 67% 30.24 in 10.0 mi North 15.0 mph - 0.00 in   Clear
5:55 PM 8.6 °F -8.3 °F -0.4 °F 67% 30.24 in 10.0 mi NNW 15.0 mph - 0.00 in   Clear
6:15 PM 8.6 °F -7.7 °F -0.4 °F 67% 30.24 in 10.0 mi NNW 13.8 mph - 0.00 in   Clear
6:35 PM 5.0 °F -11.6 °F -2.2 °F 72% 30.25 in 10.0 mi NNW 12.7 mph - 0.00 in   Clear
6:55 PM 5.0 °F -13.0 °F -2.2 °F 72% 30.24 in 10.0 mi NNW 15.0 mph - 0.00 in   Clear
7:15 PM 5.0 °F -13.0 °F -4.0 °F 66% 30.25 in 10.0 mi NNW 15.0 mph - 0.00 in   Clear
7:35 PM 3.2 °F -15.3 °F -4.0 °F 72% 30.24 in 10.0 mi NNW 15.0 mph - 0.00 in   Clear
7:55 PM 3.2 °F -15.3 °F -4.0 °F 72% 30.24 in 10.0 mi NNW 15.0 mph - 0.00 in   Clear
8:15 PM 3.2 °F -13.1 °F -4.0 °F 72% 30.23 in 10.0 mi NNW 11.5 mph - 0.00 in   Clear
8:35 PM 3.2 °F -13.1 °F -5.8 °F 66% 30.22 in 10.0 mi NNW 11.5 mph - 0.00 in   Clear
8:55 PM 1.4 °F -14.5 °F -5.8 °F 72% 30.21 in 10.0 mi NNW 10.4 mph - 0.00 in   Clear
9:15 PM 1.4 °F -12.5 °F -5.8 °F 72% 30.21 in 10.0 mi NNW 8.1 mph - 0.00 in   Clear
9:35 PM -0.4 °F -14.7 °F -7.6 °F 72% 30.20 in 10.0 mi NW 8.1 mph - 0.00 in   Clear
9:55 PM -0.4 °F -15.7 °F -7.6 °F 72% 30.20 in 10.0 mi NW 9.2 mph - 0.00 in   Clear
10:15 PM 1.4 °F -12.5 °F -5.8 °F 72% 30.19 in 10.0 mi NW 8.1 mph - 0.00 in   Clear
10:35 PM 1.4 °F -14.5 °F -5.8 °F 72% 30.19 in 10.0 mi NW 10.4 mph - 0.00 in   Clear
10:55 PM 1.4 °F -14.5 °F -5.8 °F 72% 30.19 in 10.0 mi NW 10.4 mph - 0.00 in   Clear
11:15 PM 1.4 °F -12.5 °F -5.8 °F 72% 30.17 in 10.0 mi NW 8.1 mph - 0.00 in   Clear
11:35 PM 1.4 °F -12.5 °F -5.8 °F 72% 30.17 in 10.0 mi NW 8.1 mph - 0.00 in   Clear
11:55 PM 1.4 °F -8.3 °F -5.8 °F 72% 30.15 in 10.0 mi WNW 4.6 mph - 0.00 in   Clear